Terminal Aerodrome Forecast
Issued by NWS Wakefield, VA

Home | Current Version | Previous Version | Text Only | Print | Product List | Glossary On
Versions: 1 2 3 4 5 6 7 8 9 10 11 12 13 14 15
967
FTUS41 KAKQ 231728
TAFSBY
TAF
KSBY 231728Z 2318/2418 13011G17KT P6SM SCT200
     FM241200 11009KT P6SM BKN100
     FM241500 11013KT P6SM OVC050=

USA.gov is the U.S. government's official web portal to all federal, state and local government web resources and services.